KLM1405 EHAM-LFPG
Flight info
| Callsign | KLM1405 |
|---|---|
| Flight time | 0h 44m |
| Altitude | 30000 |
| Route | WOODY N872 DENOX DCT SISGA DCT DELOM DCT MOPIL |
| Aircraft | B738/M-SDE2E3FGHIRWXY/LB1 |
Departure
| Time | 2026-04-30 07:12 |
|---|---|
| Airport | Amsterdam Airport Schiphol (EHAM) |
Arrival
| Time | 2026-04-30 07:57 |
|---|---|
| Airport | Charles de Gaulle International Airport (LFPG) |
| Time | Latitude | Longitude | Altitude | Speed | Heading |
|---|---|---|---|---|---|
| 2026-04-30 06:57 | 52.30788 | 4.77356 | -2 ft | 0 kts | 183° |
| 2026-04-30 07:00 | 52.30799 | 4.77357 | -2 ft | 3 kts | 188° |
| 2026-04-30 07:00 | 52.30818 | 4.77362 | -2 ft | 2 kts | 188° |
| 2026-04-30 07:00 | 52.30828 | 4.77362 | -2 ft | 1 kts | 141° |
| 2026-04-30 07:00 | 52.30833 | 4.77352 | -2 ft | 1 kts | 115° |
| 2026-04-30 07:01 | 52.30837 | 4.77339 | -2 ft | 1 kts | 111° |
| 2026-04-30 07:04 | 52.30836 | 4.77369 | -2 ft | 13 kts | 87° |
| 2026-04-30 07:04 | 52.30838 | 4.77578 | -2 ft | 13 kts | 59° |
| 2026-04-30 07:04 | 52.30955 | 4.77616 | -2 ft | 22 kts | 4° |
| 2026-04-30 07:04 | 52.31124 | 4.77631 | -2 ft | 28 kts | 3° |
| 2026-04-30 07:05 | 52.31491 | 4.77592 | -2 ft | 26 kts | 320° |
| 2026-04-30 07:05 | 52.31577 | 4.77355 | -2 ft | 26 kts | 272° |
| 2026-04-30 07:05 | 52.31567 | 4.77053 | -2 ft | 26 kts | 267° |
| 2026-04-30 07:06 | 52.31557 | 4.76765 | -2 ft | 25 kts | 265° |
| 2026-04-30 07:06 | 52.31548 | 4.76496 | -2 ft | 23 kts | 266° |
| 2026-04-30 07:06 | 52.31539 | 4.76239 | -2 ft | 22 kts | 266° |
| 2026-04-30 07:06 | 52.31530 | 4.75976 | -2 ft | 30 kts | 266° |
| 2026-04-30 07:07 | 52.31514 | 4.75536 | -2 ft | 41 kts | 267° |
| 2026-04-30 07:07 | 52.31503 | 4.75208 | -2 ft | 21 kts | 266° |
| 2026-04-30 07:07 | 52.31496 | 4.74977 | -2 ft | 20 kts | 266° |
| 2026-04-30 07:07 | 52.31489 | 4.74776 | -2 ft | 13 kts | 266° |
| 2026-04-30 07:08 | 52.31503 | 4.74691 | -2 ft | 6 kts | 308° |
| 2026-04-30 07:08 | 52.31539 | 4.74665 | -2 ft | 6 kts | 356° |
| 2026-04-30 07:08 | 52.31567 | 4.74662 | -2 ft | 0 kts | 357° |
| 2026-04-30 07:09 | 52.31596 | 4.74661 | -2 ft | 17 kts | 0° |
| 2026-04-30 07:10 | 52.31665 | 4.74756 | -2 ft | 9 kts | 86° |
| 2026-04-30 07:10 | 52.31666 | 4.74768 | -2 ft | 0 kts | 86° |
| 2026-04-30 07:11 | 52.31667 | 4.74815 | -2 ft | 24 kts | 86° |
| 2026-04-30 07:11 | 52.31697 | 4.75614 | -3 ft | 114 kts | 87° |
| 2026-04-30 07:12 | 52.31748 | 4.77266 | 319 ft | 160 kts | 87° |
| 2026-04-30 07:12 | 52.31814 | 4.79011 | 1652 ft | 151 kts | 89° |
| 2026-04-30 07:12 | 52.31629 | 4.80799 | 2366 ft | 176 kts | 120° |
| 2026-04-30 07:12 | 52.30727 | 4.82239 | 2935 ft | 196 kts | 148° |
| 2026-04-30 07:13 | 52.29391 | 4.83003 | 3524 ft | 209 kts | 157° |
| 2026-04-30 07:13 | 52.27969 | 4.83709 | 4212 ft | 215 kts | 157° |
| 2026-04-30 07:13 | 52.26518 | 4.84419 | 5004 ft | 220 kts | 158° |
| 2026-04-30 07:13 | 52.24990 | 4.84938 | 5771 ft | 235 kts | 170° |
| 2026-04-30 07:14 | 52.23246 | 4.84976 | 6206 ft | 261 kts | 176° |
| 2026-04-30 07:14 | 52.21403 | 4.84880 | 7033 ft | 268 kts | 176° |
| 2026-04-30 07:14 | 52.19525 | 4.84780 | 7888 ft | 272 kts | 176° |
| 2026-04-30 07:14 | 52.17646 | 4.84693 | 8730 ft | 276 kts | 176° |
| 2026-04-30 07:15 | 52.15709 | 4.84623 | 9572 ft | 281 kts | 175° |
| 2026-04-30 07:15 | 52.13748 | 4.84565 | 10408 ft | 285 kts | 175° |
| 2026-04-30 07:15 | 52.11730 | 4.84515 | 10934 ft | 301 kts | 175° |
| 2026-04-30 07:15 | 52.09535 | 4.84471 | 11113 ft | 328 kts | 176° |
| 2026-04-30 07:16 | 52.07170 | 4.84422 | 11392 ft | 348 kts | 176° |
| 2026-04-30 07:16 | 52.04713 | 4.84368 | 12019 ft | 356 kts | 176° |
| 2026-04-30 07:16 | 52.02218 | 4.84173 | 12759 ft | 364 kts | 185° |
| 2026-04-30 07:16 | 51.99803 | 4.82712 | 13506 ft | 376 kts | 205° |
| 2026-04-30 07:17 | 51.97496 | 4.80690 | 14270 ft | 380 kts | 204° |
| 2026-04-30 07:17 | 51.95113 | 4.78793 | 14906 ft | 384 kts | 202° |
| 2026-04-30 07:17 | 51.90342 | 4.75105 | 16292 ft | 390 kts | 202° |
| 2026-04-30 07:18 | 51.87889 | 4.73199 | 16961 ft | 393 kts | 202° |
| 2026-04-30 07:18 | 51.85410 | 4.71266 | 17622 ft | 397 kts | 203° |
| 2026-04-30 07:18 | 51.82912 | 4.69319 | 18301 ft | 401 kts | 203° |
| 2026-04-30 07:18 | 51.80384 | 4.67349 | 18919 ft | 404 kts | 203° |
| 2026-04-30 07:19 | 51.77838 | 4.65367 | 19475 ft | 408 kts | 203° |
| 2026-04-30 07:19 | 51.75270 | 4.63370 | 20029 ft | 411 kts | 203° |
| 2026-04-30 07:19 | 51.72679 | 4.61358 | 20594 ft | 414 kts | 203° |
| 2026-04-30 07:19 | 51.70070 | 4.59335 | 21137 ft | 418 kts | 203° |
| 2026-04-30 07:20 | 51.67440 | 4.57299 | 21647 ft | 421 kts | 203° |
| 2026-04-30 07:20 | 51.64782 | 4.55244 | 22171 ft | 425 kts | 204° |
| 2026-04-30 07:20 | 51.62142 | 4.53200 | 22686 ft | 428 kts | 204° |
| 2026-04-30 07:20 | 51.59443 | 4.51112 | 23178 ft | 432 kts | 204° |
| 2026-04-30 07:21 | 51.56728 | 4.49014 | 23661 ft | 436 kts | 204° |
| 2026-04-30 07:21 | 51.53983 | 4.46895 | 24129 ft | 438 kts | 204° |
| 2026-04-30 07:21 | 51.51229 | 4.44772 | 24569 ft | 441 kts | 204° |
| 2026-04-30 07:21 | 51.48452 | 4.42633 | 24995 ft | 443 kts | 203° |
| 2026-04-30 07:22 | 51.42869 | 4.38342 | 25853 ft | 447 kts | 203° |
| 2026-04-30 07:22 | 51.40053 | 4.36185 | 26268 ft | 449 kts | 203° |
| 2026-04-30 07:22 | 51.37220 | 4.34054 | 26665 ft | 451 kts | 202° |
| 2026-04-30 07:23 | 51.34369 | 4.31933 | 27038 ft | 453 kts | 202° |
| 2026-04-30 07:23 | 51.31539 | 4.29831 | 27398 ft | 456 kts | 202° |
| 2026-04-30 07:23 | 51.28664 | 4.27667 | 27850 ft | 456 kts | 203° |
| 2026-04-30 07:23 | 51.25804 | 4.25484 | 28347 ft | 455 kts | 203° |
| 2026-04-30 07:24 | 51.20046 | 4.21090 | 28365 ft | 458 kts | 202° |
| 2026-04-30 07:24 | 51.15638 | 4.17811 | 28351 ft | 451 kts | 199° |
| 2026-04-30 07:25 | 51.09715 | 4.14552 | 28360 ft | 452 kts | 195° |
| 2026-04-30 07:25 | 51.03641 | 4.11358 | 28358 ft | 466 kts | 195° |
| 2026-04-30 07:26 | 50.97465 | 4.08007 | 28346 ft | 478 kts | 196° |
| 2026-04-30 07:26 | 50.91105 | 4.04562 | 28337 ft | 487 kts | 194° |
| 2026-04-30 07:27 | 50.84476 | 4.02998 | 28331 ft | 479 kts | 175° |
| 2026-04-30 07:27 | 50.77855 | 4.03888 | 28325 ft | 478 kts | 172° |
| 2026-04-30 07:28 | 50.71223 | 4.04680 | 28313 ft | 478 kts | 173° |
| 2026-04-30 07:28 | 50.64588 | 4.05393 | 28309 ft | 477 kts | 173° |
| 2026-04-30 07:29 | 50.57962 | 4.06120 | 28304 ft | 477 kts | 173° |
| 2026-04-30 07:29 | 50.51380 | 4.06839 | 28306 ft | 476 kts | 173° |
| 2026-04-30 07:30 | 50.41468 | 4.07919 | 28301 ft | 476 kts | 172° |
| 2026-04-30 07:31 | 50.34852 | 4.08637 | 28294 ft | 476 kts | 172° |
| 2026-04-30 07:31 | 50.28250 | 4.09351 | 28288 ft | 475 kts | 172° |
| 2026-04-30 07:32 | 50.21655 | 4.10062 | 28279 ft | 475 kts | 172° |
| 2026-04-30 07:32 | 50.15058 | 4.10770 | 28270 ft | 475 kts | 173° |
| 2026-04-30 07:33 | 50.08425 | 4.10683 | 28274 ft | 478 kts | 180° |
| 2026-04-30 07:33 | 50.01789 | 4.09969 | 28265 ft | 478 kts | 180° |
| 2026-04-30 07:34 | 49.95180 | 4.09342 | 28262 ft | 478 kts | 179° |
| 2026-04-30 07:34 | 49.88537 | 4.08831 | 28254 ft | 477 kts | 179° |
| 2026-04-30 07:35 | 49.81902 | 4.08351 | 28244 ft | 474 kts | 179° |
| 2026-04-30 07:35 | 49.78661 | 4.08111 | 28146 ft | 456 kts | 179° |
| 2026-04-30 07:35 | 49.75549 | 4.07878 | 28038 ft | 440 kts | 178° |
| 2026-04-30 07:35 | 49.72552 | 4.07656 | 27916 ft | 425 kts | 178° |
| 2026-04-30 07:36 | 49.69631 | 4.07444 | 27536 ft | 417 kts | 178° |
| 2026-04-30 07:36 | 49.66742 | 4.07237 | 26959 ft | 415 kts | 178° |
| 2026-04-30 07:36 | 49.63886 | 4.07022 | 26750 ft | 405 kts | 180° |
| 2026-04-30 07:36 | 49.61163 | 4.06098 | 26639 ft | 402 kts | 200° |
| 2026-04-30 07:37 | 49.58840 | 4.03878 | 26489 ft | 399 kts | 217° |
| 2026-04-30 07:37 | 49.56999 | 4.00684 | 26122 ft | 401 kts | 233° |
| 2026-04-30 07:37 | 49.55496 | 3.97050 | 25405 ft | 407 kts | 235° |
| 2026-04-30 07:37 | 49.53956 | 3.93269 | 24326 ft | 424 kts | 236° |
| 2026-04-30 07:38 | 49.52364 | 3.89402 | 23592 ft | 429 kts | 235° |
| 2026-04-30 07:38 | 49.50759 | 3.85560 | 23111 ft | 424 kts | 235° |
| 2026-04-30 07:38 | 49.49164 | 3.81780 | 22692 ft | 418 kts | 235° |
| 2026-04-30 07:38 | 49.47619 | 3.78026 | 22228 ft | 414 kts | 240° |
| 2026-04-30 07:39 | 49.46672 | 3.73850 | 21698 ft | 415 kts | 258° |
| 2026-04-30 07:39 | 49.46091 | 3.69550 | 21204 ft | 408 kts | 256° |
| 2026-04-30 07:39 | 49.45408 | 3.65309 | 20622 ft | 408 kts | 254° |
| 2026-04-30 07:39 | 49.44681 | 3.61106 | 20168 ft | 405 kts | 254° |
| 2026-04-30 07:40 | 49.43960 | 3.56952 | 19753 ft | 401 kts | 254° |
| 2026-04-30 07:40 | 49.43252 | 3.52828 | 19322 ft | 397 kts | 254° |
| 2026-04-30 07:40 | 49.42556 | 3.48747 | 18804 ft | 395 kts | 254° |
| 2026-04-30 07:40 | 49.41839 | 3.44682 | 18315 ft | 393 kts | 250° |
| 2026-04-30 07:41 | 49.40854 | 3.40857 | 17884 ft | 387 kts | 243° |
| 2026-04-30 07:41 | 49.39679 | 3.37156 | 17444 ft | 383 kts | 241° |
| 2026-04-30 07:41 | 49.38460 | 3.33538 | 16957 ft | 381 kts | 240° |
| 2026-04-30 07:41 | 49.37245 | 3.29948 | 16503 ft | 378 kts | 240° |
| 2026-04-30 07:42 | 49.36047 | 3.26362 | 16065 ft | 375 kts | 240° |
| 2026-04-30 07:42 | 49.35269 | 3.24002 | 15784 ft | 373 kts | 241° |
| 2026-04-30 07:42 | 49.34111 | 3.20451 | 15357 ft | 371 kts | 241° |
| 2026-04-30 07:42 | 49.32970 | 3.16923 | 14923 ft | 368 kts | 241° |
| 2026-04-30 07:43 | 49.31849 | 3.13440 | 14439 ft | 360 kts | 241° |
| 2026-04-30 07:43 | 49.30746 | 3.10006 | 13752 ft | 357 kts | 242° |
| 2026-04-30 07:43 | 49.29296 | 3.05497 | 12694 ft | 356 kts | 241° |
| 2026-04-30 07:43 | 49.28280 | 3.02071 | 12050 ft | 353 kts | 250° |
| 2026-04-30 07:44 | 49.27851 | 2.99634 | 11750 ft | 347 kts | 255° |
| 2026-04-30 07:44 | 49.27349 | 2.96052 | 11283 ft | 341 kts | 256° |
| 2026-04-30 07:44 | 49.26885 | 2.92514 | 10828 ft | 338 kts | 257° |
| 2026-04-30 07:44 | 49.26437 | 2.89036 | 10374 ft | 336 kts | 257° |
| 2026-04-30 07:45 | 49.25986 | 2.85528 | 9898 ft | 334 kts | 257° |
| 2026-04-30 07:45 | 49.25537 | 2.82055 | 9410 ft | 331 kts | 257° |
| 2026-04-30 07:45 | 49.25087 | 2.78591 | 8931 ft | 333 kts | 257° |
| 2026-04-30 07:45 | 49.24636 | 2.75125 | 8446 ft | 331 kts | 257° |
| 2026-04-30 07:46 | 49.24190 | 2.71711 | 7965 ft | 323 kts | 256° |
| 2026-04-30 07:46 | 49.23517 | 2.68484 | 7501 ft | 314 kts | 243° |
| 2026-04-30 07:46 | 49.22616 | 2.65510 | 7151 ft | 304 kts | 243° |
| 2026-04-30 07:46 | 49.21745 | 2.62596 | 6784 ft | 297 kts | 243° |
| 2026-04-30 07:47 | 49.20898 | 2.59750 | 6413 ft | 291 kts | 243° |
| 2026-04-30 07:47 | 49.20072 | 2.56945 | 6015 ft | 286 kts | 243° |
| 2026-04-30 07:47 | 49.19265 | 2.54196 | 5651 ft | 281 kts | 243° |
| 2026-04-30 07:47 | 49.18463 | 2.51486 | 5265 ft | 277 kts | 243° |
| 2026-04-30 07:48 | 49.17682 | 2.48824 | 4904 ft | 273 kts | 243° |
| 2026-04-30 07:48 | 49.16913 | 2.46203 | 4505 ft | 268 kts | 240° |
| 2026-04-30 07:48 | 49.15870 | 2.43961 | 4133 ft | 258 kts | 221° |
| 2026-04-30 07:48 | 49.14631 | 2.42028 | 3883 ft | 250 kts | 221° |
| 2026-04-30 07:49 | 49.13459 | 2.40099 | 3672 ft | 246 kts | 223° |
| 2026-04-30 07:49 | 49.12334 | 2.38192 | 3498 ft | 238 kts | 223° |
| 2026-04-30 07:49 | 49.11226 | 2.36397 | 3287 ft | 225 kts | 214° |
| 2026-04-30 07:49 | 49.10002 | 2.34943 | 3257 ft | 222 kts | 211° |
| 2026-04-30 07:50 | 49.08786 | 2.33549 | 3173 ft | 212 kts | 211° |
| 2026-04-30 07:50 | 49.07671 | 2.32244 | 3185 ft | 192 kts | 211° |
| 2026-04-30 07:50 | 49.06671 | 2.31061 | 3157 ft | 177 kts | 210° |
| 2026-04-30 07:50 | 49.05706 | 2.29911 | 3192 ft | 175 kts | 211° |
| 2026-04-30 07:51 | 49.04741 | 2.28769 | 3184 ft | 172 kts | 210° |
| 2026-04-30 07:51 | 49.03803 | 2.27654 | 3170 ft | 168 kts | 209° |
| 2026-04-30 07:51 | 49.02789 | 2.26987 | 3176 ft | 155 kts | 171° |
| 2026-04-30 07:51 | 49.01825 | 2.27514 | 3179 ft | 150 kts | 135° |
| 2026-04-30 07:52 | 49.01285 | 2.28814 | 3169 ft | 147 kts | 102° |
| 2026-04-30 07:52 | 49.01383 | 2.30333 | 3193 ft | 144 kts | 85° |
| 2026-04-30 07:52 | 49.01461 | 2.31889 | 3201 ft | 150 kts | 90° |
| 2026-04-30 07:52 | 49.01512 | 2.33499 | 3014 ft | 156 kts | 91° |
| 2026-04-30 07:53 | 49.01566 | 2.35177 | 2809 ft | 157 kts | 89° |
| 2026-04-30 07:53 | 49.01647 | 2.36862 | 2451 ft | 159 kts | 89° |
| 2026-04-30 07:53 | 49.01716 | 2.38445 | 2241 ft | 139 kts | 92° |
| 2026-04-30 07:53 | 49.01790 | 2.39836 | 2043 ft | 124 kts | 89° |
| 2026-04-30 07:54 | 49.01867 | 2.41124 | 1896 ft | 121 kts | 90° |
| 2026-04-30 07:54 | 49.01934 | 2.42406 | 1727 ft | 124 kts | 90° |
| 2026-04-30 07:54 | 49.02004 | 2.43720 | 1555 ft | 125 kts | 90° |
| 2026-04-30 07:54 | 49.02074 | 2.45035 | 1393 ft | 125 kts | 90° |
| 2026-04-30 07:55 | 49.02136 | 2.46366 | 1224 ft | 126 kts | 87° |
| 2026-04-30 07:55 | 49.02214 | 2.47720 | 1044 ft | 130 kts | 88° |
| 2026-04-30 07:55 | 49.02288 | 2.49061 | 877 ft | 128 kts | 86° |
| 2026-04-30 07:55 | 49.02362 | 2.50426 | 679 ft | 128 kts | 86° |
| 2026-04-30 07:56 | 49.02433 | 2.51770 | 486 ft | 126 kts | 86° |
| 2026-04-30 07:56 | 49.02506 | 2.53098 | 368 ft | 124 kts | 85° |
| 2026-04-30 07:56 | 49.02565 | 2.54240 | 362 ft | 91 kts | 85° |
| 2026-04-30 07:56 | 49.02603 | 2.55097 | 359 ft | 69 kts | 96° |
| 2026-04-30 07:57 | 49.02477 | 2.55569 | 358 ft | 26 kts | 134° |
| 2026-04-30 07:57 | 49.02309 | 2.55624 | 361 ft | 25 kts | 176° |
| 2026-04-30 07:57 | 49.02099 | 2.55650 | 354 ft | 31 kts | 174° |
| 2026-04-30 07:57 | 49.01905 | 2.55690 | 361 ft | 9 kts | 148° |
| 2026-04-30 07:58 | 49.01899 | 2.55796 | 354 ft | 16 kts | 85° |
| 2026-04-30 07:58 | 49.01915 | 2.56115 | 354 ft | 45 kts | 85° |
| 2026-04-30 07:58 | 49.01946 | 2.56704 | 359 ft | 60 kts | 84° |
| 2026-04-30 07:58 | 49.01979 | 2.57301 | 354 ft | 54 kts | 86° |
| 2026-04-30 07:59 | 49.01980 | 2.57838 | 356 ft | 36 kts | 118° |
| 2026-04-30 07:59 | 49.01760 | 2.57995 | 355 ft | 44 kts | 176° |
| 2026-04-30 07:59 | 49.01228 | 2.58061 | 354 ft | 98 kts | 175° |
| 2026-04-30 08:00 | 49.00697 | 2.58076 | 352 ft | 10 kts | 254° |
| 2026-04-30 08:00 | 49.00691 | 2.58043 | 359 ft | 0 kts | 255° |